Terminal Aerodrome Forecast
Issued by NWS

Home | Current Version | Previous Version | Text Only | Print | Product List | Glossary Off
Versions: 1 2 3 4 5 6 7 8 9 10 11 12 13 14 15 16 17 18 19

718
FTUS43 KBIS 220000 CCA
TAFMOT
TAF COR
KMOT 220000Z 2200/2224 27020G27KT P6SM OVC035
     FM220300 27012KT P6SM SCT150 WS020/30035KT
     FM220900 25008KT P6SM SKC
     FM221800 22018G26KT P6SM BKN080=

USA.gov is the U.S. government's official web portal to all federal, state and local government web resources and services.